SWA3548 KMDW-KMCI
Flight info
| Callsign | SWA3548 |
|---|---|
| Flight time | N/A |
| Altitude | 38000 |
| Route | PEKUE PIGGG QUANE CARET BULET RUDDH3 |
| Aircraft | B737/M-SDE2E3FGHIRWXY/LB1 |
Departure
| Time | 2026-05-07 00:06 |
|---|---|
| Airport | Chicago Midway International Airport (KMDW) |
Arrival
| Time | N/A |
|---|---|
| Airport | Kansas City International Airport (KMCI) |
| Time | Latitude | Longitude | Altitude | Speed | Heading |
|---|---|---|---|---|---|
| 2026-05-06 23:34 | 41.78537 | -87.74360 | 628 ft | 0 kts | 133° |
| 2026-05-06 23:55 | 41.78539 | -87.74361 | 628 ft | 2 kts | 133° |
| 2026-05-06 23:55 | 41.78556 | -87.74386 | 636 ft | 4 kts | 117° |
| 2026-05-06 23:55 | 41.78559 | -87.74410 | 638 ft | 4 kts | 97° |
| 2026-05-06 23:55 | 41.78566 | -87.74429 | 634 ft | 4 kts | 186° |
| 2026-05-06 23:56 | 41.78586 | -87.74413 | 634 ft | 4 kts | 223° |
| 2026-05-06 23:56 | 41.78590 | -87.74408 | 636 ft | 1 kts | 223° |
| 2026-05-07 00:02 | 41.78588 | -87.74410 | 628 ft | 1 kts | 224° |
| 2026-05-07 00:02 | 41.78573 | -87.74429 | 636 ft | 5 kts | 224° |
| 2026-05-07 00:02 | 41.78541 | -87.74470 | 631 ft | 7 kts | 224° |
| 2026-05-07 00:02 | 41.78502 | -87.74520 | 628 ft | 9 kts | 223° |
| 2026-05-07 00:03 | 41.78451 | -87.74558 | 632 ft | 9 kts | 166° |
| 2026-05-07 00:03 | 41.78404 | -87.74500 | 628 ft | 6 kts | 132° |
| 2026-05-07 00:03 | 41.78369 | -87.74449 | 634 ft | 9 kts | 134° |
| 2026-05-07 00:03 | 41.78320 | -87.74384 | 637 ft | 10 kts | 142° |
| 2026-05-07 00:04 | 41.78245 | -87.74358 | 634 ft | 12 kts | 154° |
| 2026-05-07 00:04 | 41.78166 | -87.74309 | 631 ft | 9 kts | 177° |
| 2026-05-07 00:04 | 41.78106 | -87.74307 | 631 ft | 8 kts | 179° |
| 2026-05-07 00:04 | 41.78048 | -87.74304 | 628 ft | 9 kts | 178° |
| 2026-05-07 00:05 | 41.78013 | -87.74303 | 631 ft | 5 kts | 180° |
| 2026-05-07 00:05 | 41.77973 | -87.74332 | 630 ft | 8 kts | 223° |
| 2026-05-07 00:05 | 41.77945 | -87.74403 | 627 ft | 9 kts | 295° |
| 2026-05-07 00:05 | 41.78008 | -87.74488 | 627 ft | 13 kts | 314° |
| 2026-05-07 00:06 | 41.78218 | -87.74785 | 628 ft | 81 kts | 313° |
| 2026-05-07 00:06 | 41.78556 | -87.75260 | 628 ft | 126 kts | 314° |
| 2026-05-07 00:06 | 41.79526 | -87.76620 | 1045 ft | 172 kts | 312° |
| 2026-05-07 00:06 | 41.80112 | -87.77449 | 1344 ft | 191 kts | 309° |
| 2026-05-07 00:07 | 41.81038 | -87.78905 | 1667 ft | 222 kts | 309° |
| 2026-05-07 00:07 | 41.81719 | -87.80844 | 2020 ft | 249 kts | 276° |
| 2026-05-07 00:07 | 41.81695 | -87.83173 | 3154 ft | 246 kts | 269° |
| 2026-05-07 00:07 | 41.81609 | -87.85429 | 4487 ft | 242 kts | 269° |
| 2026-05-07 00:08 | 41.81529 | -87.87723 | 5545 ft | 246 kts | 269° |
| 2026-05-07 00:08 | 41.81460 | -87.90025 | 6660 ft | 247 kts | 269° |
| 2026-05-07 00:08 | 41.81399 | -87.92309 | 7665 ft | 250 kts | 269° |
| 2026-05-07 00:08 | 41.81344 | -87.94663 | 8650 ft | 254 kts | 269° |
| 2026-05-07 00:09 | 41.81294 | -87.97039 | 9690 ft | 256 kts | 269° |
| 2026-05-07 00:09 | 41.81247 | -87.99443 | 10522 ft | 264 kts | 269° |
| 2026-05-07 00:09 | 41.81200 | -88.02024 | 10795 ft | 291 kts | 269° |
| 2026-05-07 00:09 | 41.81150 | -88.04864 | 11018 ft | 317 kts | 269° |
| 2026-05-07 00:10 | 41.81098 | -88.07875 | 11674 ft | 327 kts | 269° |
| 2026-05-07 00:10 | 41.81045 | -88.10927 | 12632 ft | 328 kts | 269° |
| 2026-05-07 00:10 | 41.80993 | -88.13981 | 13639 ft | 328 kts | 269° |
| 2026-05-07 00:10 | 41.80941 | -88.17037 | 14566 ft | 328 kts | 268° |
| 2026-05-07 00:11 | 41.80889 | -88.20101 | 15497 ft | 329 kts | 268° |
| 2026-05-07 00:11 | 41.80836 | -88.23173 | 16425 ft | 330 kts | 268° |
| 2026-05-07 00:11 | 41.80782 | -88.26257 | 17332 ft | 332 kts | 267° |
| 2026-05-07 00:11 | 41.80727 | -88.29355 | 18214 ft | 333 kts | 267° |
| 2026-05-07 00:12 | 41.80671 | -88.32469 | 18996 ft | 335 kts | 267° |
| 2026-05-07 00:12 | 41.80615 | -88.35583 | 19854 ft | 333 kts | 266° |
| 2026-05-07 00:12 | 41.80558 | -88.38687 | 20700 ft | 332 kts | 266° |
| 2026-05-07 00:12 | 41.80501 | -88.41748 | 21486 ft | 332 kts | 266° |
| 2026-05-07 00:13 | 41.80442 | -88.44847 | 22251 ft | 333 kts | 266° |
| 2026-05-07 00:13 | 41.80382 | -88.47956 | 22994 ft | 334 kts | 266° |
| 2026-05-07 00:13 | 41.80321 | -88.51076 | 23649 ft | 336 kts | 266° |
| 2026-05-07 00:13 | 41.80259 | -88.54209 | 24194 ft | 338 kts | 266° |
| 2026-05-07 00:14 | 41.80195 | -88.57382 | 24671 ft | 341 kts | 266° |
| 2026-05-07 00:14 | 41.80130 | -88.60581 | 25135 ft | 344 kts | 266° |
| 2026-05-07 00:14 | 41.80064 | -88.63798 | 25603 ft | 347 kts | 266° |
| 2026-05-07 00:14 | 41.79996 | -88.67043 | 26073 ft | 349 kts | 266° |
| 2026-05-07 00:15 | 41.79928 | -88.70308 | 26519 ft | 352 kts | 266° |
| 2026-05-07 00:15 | 41.79858 | -88.73599 | 26956 ft | 355 kts | 266° |
| 2026-05-07 00:15 | 41.79786 | -88.76911 | 27366 ft | 357 kts | 266° |
| 2026-05-07 00:15 | 41.79697 | -88.80247 | 27766 ft | 360 kts | 265° |
| 2026-05-07 00:16 | 41.79389 | -88.83585 | 28165 ft | 362 kts | 261° |
| 2026-05-07 00:16 | 41.78961 | -88.86921 | 28565 ft | 364 kts | 260° |
| 2026-05-07 00:16 | 41.78528 | -88.90230 | 28901 ft | 367 kts | 260° |
| 2026-05-07 00:16 | 41.78088 | -88.93610 | 29313 ft | 368 kts | 260° |
| 2026-05-07 00:17 | 41.77653 | -88.96976 | 29887 ft | 365 kts | 260° |
| 2026-05-07 00:17 | 41.77225 | -89.00314 | 30436 ft | 362 kts | 260° |
| 2026-05-07 00:17 | 41.76799 | -89.03645 | 30748 ft | 363 kts | 260° |
| 2026-05-07 00:17 | 41.76371 | -89.06993 | 31065 ft | 365 kts | 260° |
| 2026-05-07 00:18 | 41.75940 | -89.10348 | 31457 ft | 365 kts | 260° |
| 2026-05-07 00:18 | 41.75472 | -89.13688 | 31880 ft | 364 kts | 257° |
| 2026-05-07 00:18 | 41.74736 | -89.17020 | 32279 ft | 364 kts | 252° |
| 2026-05-07 00:18 | 41.73752 | -89.20154 | 32635 ft | 366 kts | 247° |
| 2026-05-07 00:19 | 41.72646 | -89.23165 | 33008 ft | 366 kts | 246° |
| 2026-05-07 00:19 | 41.71509 | -89.26218 | 33368 ft | 366 kts | 246° |
| 2026-05-07 00:19 | 41.70368 | -89.29276 | 33660 ft | 368 kts | 246° |
| 2026-05-07 00:19 | 41.69229 | -89.32338 | 34025 ft | 367 kts | 246° |
| 2026-05-07 00:20 | 41.68096 | -89.35389 | 34339 ft | 367 kts | 246° |
| 2026-05-07 00:20 | 41.66961 | -89.38450 | 34572 ft | 368 kts | 246° |
| 2026-05-07 00:20 | 41.65823 | -89.41525 | 34804 ft | 369 kts | 246° |
| 2026-05-07 00:20 | 41.64682 | -89.44603 | 35050 ft | 370 kts | 246° |
| 2026-05-07 00:21 | 41.63539 | -89.47686 | 35298 ft | 370 kts | 246° |
| 2026-05-07 00:21 | 41.62394 | -89.50771 | 35536 ft | 371 kts | 246° |
| 2026-05-07 00:21 | 41.61247 | -89.53861 | 35778 ft | 372 kts | 246° |
| 2026-05-07 00:21 | 41.60096 | -89.56955 | 36013 ft | 372 kts | 246° |
| 2026-05-07 00:22 | 41.58942 | -89.60055 | 36230 ft | 373 kts | 246° |
| 2026-05-07 00:22 | 41.57785 | -89.63162 | 36459 ft | 374 kts | 246° |
| 2026-05-07 00:22 | 41.56625 | -89.66272 | 36689 ft | 374 kts | 246° |
| 2026-05-07 00:22 | 41.55465 | -89.69378 | 36918 ft | 373 kts | 246° |
| 2026-05-07 00:23 | 41.54311 | -89.72462 | 37209 ft | 372 kts | 246° |
| 2026-05-07 00:23 | 41.53142 | -89.75551 | 37399 ft | 373 kts | 245° |
| 2026-05-07 00:23 | 41.51909 | -89.78608 | 37568 ft | 375 kts | 245° |
| 2026-05-07 00:23 | 41.50643 | -89.81653 | 37770 ft | 375 kts | 244° |
| 2026-05-07 00:24 | 41.49368 | -89.84691 | 38001 ft | 375 kts | 244° |
| 2026-05-07 00:24 | 41.48105 | -89.87703 | 38051 ft | 378 kts | 244° |
| 2026-05-07 00:24 | 41.45546 | -89.93828 | 38072 ft | 376 kts | 244° |
| 2026-05-07 00:25 | 41.43015 | -89.99902 | 38082 ft | 374 kts | 244° |
| 2026-05-07 00:25 | 41.40494 | -90.05958 | 38078 ft | 373 kts | 244° |
| 2026-05-07 00:26 | 41.37974 | -90.12002 | 38074 ft | 373 kts | 244° |
| 2026-05-07 00:26 | 41.35451 | -90.18043 | 38066 ft | 374 kts | 244° |
| 2026-05-07 00:27 | 41.32925 | -90.24078 | 38060 ft | 373 kts | 244° |
| 2026-05-07 00:27 | 41.30400 | -90.30095 | 38068 ft | 372 kts | 244° |
| 2026-05-07 00:28 | 41.27875 | -90.36103 | 38070 ft | 372 kts | 244° |
| 2026-05-07 00:28 | 41.25347 | -90.42106 | 38067 ft | 372 kts | 244° |
| 2026-05-07 00:29 | 41.22816 | -90.48105 | 38069 ft | 373 kts | 244° |
| 2026-05-07 00:30 | 41.17728 | -90.60126 | 38077 ft | 373 kts | 244° |
| 2026-05-07 00:30 | 41.15177 | -90.66134 | 38078 ft | 374 kts | 244° |
| 2026-05-07 00:31 | 41.12641 | -90.72097 | 38041 ft | 373 kts | 244° |
| 2026-05-07 00:31 | 41.10087 | -90.78087 | 38069 ft | 372 kts | 244° |
| 2026-05-07 00:32 | 41.07543 | -90.84043 | 38077 ft | 371 kts | 244° |
| 2026-05-07 00:32 | 41.04993 | -90.90003 | 38075 ft | 371 kts | 244° |
| 2026-05-07 00:33 | 41.02441 | -90.95955 | 38079 ft | 371 kts | 244° |
| 2026-05-07 00:33 | 40.99881 | -91.01915 | 38079 ft | 371 kts | 244° |
| 2026-05-07 00:34 | 40.97342 | -91.07813 | 38082 ft | 371 kts | 244° |
| 2026-05-07 00:34 | 40.94780 | -91.13753 | 38080 ft | 372 kts | 244° |
| 2026-05-07 00:35 | 40.92211 | -91.19699 | 38080 ft | 373 kts | 244° |
| 2026-05-07 00:35 | 40.89635 | -91.25649 | 38057 ft | 372 kts | 244° |
| 2026-05-07 00:36 | 40.87069 | -91.31564 | 38081 ft | 370 kts | 244° |
| 2026-05-07 00:36 | 40.84510 | -91.37452 | 38081 ft | 369 kts | 244° |
| 2026-05-07 00:37 | 40.81952 | -91.43329 | 38088 ft | 369 kts | 244° |
| 2026-05-07 00:37 | 40.79392 | -91.49197 | 38089 ft | 369 kts | 244° |
| 2026-05-07 00:38 | 40.76498 | -91.54815 | 38101 ft | 373 kts | 237° |
| 2026-05-07 00:38 | 40.73296 | -91.60149 | 38091 ft | 373 kts | 237° |
| 2026-05-07 00:39 | 40.70068 | -91.65519 | 38090 ft | 373 kts | 237° |
| 2026-05-07 00:39 | 40.66923 | -91.70874 | 36884 ft | 319 kts | 238° |
| 2026-05-07 00:40 | 40.66020 | -91.72290 | 24836 ft | 152 kts | 240° |
| 2026-05-07 00:40 | 40.65084 | -91.73727 | 8777 ft | 235 kts | 235° |
| 2026-05-07 00:40 | 40.64537 | -91.74601 | 559 ft | 0 kts | 72° |